Time;durP1;ratioP1;P1;durP2;ratioP2;P2;SDS_P1;SDS_P2;PMS_P1;PMS_P2;Temp;Humidity;BMP_temperature;BMP_pressure;BME280_temperature;BME280_humidity;BME280_pressure;Samples;Min_cycle;Max_cycle;Signal;HPM_P1;HPM_P2
2021/07/21 00:02:01;;;;;;;9.33;7.83;;;15.60;99.90;;;;;;5074843;28;20233;-58
2021/07/21 00:04:27;;;;;;;11.27;8.07;;;15.50;99.90;;;;;;5074704;28;20216;-56
2021/07/21 00:06:54;;;;;;;12.23;8.40;;;15.60;99.90;;;;;;5074566;28;20307;-55
2021/07/21 00:09:22;;;;;;;12.97;8.57;;;15.70;99.90;;;;;;5074259;28;20221;-57
2021/07/21 00:14:33;;;;;;;9.20;7.90;;;15.80;99.90;;;;;;5074567;28;20330;-57
2021/07/21 00:17:02;;;;;;;12.03;8.67;;;15.80;99.90;;;;;;5074589;28;20205;-57
2021/07/21 00:22:14;;;;;;;10.07;8.20;;;15.90;99.90;;;;;;5074399;28;20596;-57
2021/07/21 00:24:43;;;;;;;13.03;8.60;;;15.90;99.90;;;;;;5074210;28;20205;-56
2021/07/21 00:27:10;;;;;;;13.57;8.57;;;15.90;99.90;;;;;;5074363;28;20205;-57
2021/07/21 00:29:37;;;;;;;10.73;8.53;;;15.80;99.90;;;;;;5073804;28;20270;-55
2021/07/21 00:32:04;;;;;;;10.70;7.37;;;15.80;99.90;;;;;;5073722;28;20282;-57
2021/07/21 00:34:31;;;;;;;12.20;7.87;;;15.70;99.90;;;;;;5073641;28;20212;-56
2021/07/21 00:36:57;;;;;;;13.17;7.97;;;15.70;99.90;;;;;;5073953;28;20208;-56
2021/07/21 00:39:24;;;;;;;8.77;7.83;;;15.60;99.90;;;;;;5073892;28;20529;-55
2021/07/21 00:41:52;;;;;;;10.20;8.17;;;15.60;99.90;;;;;;5073816;28;20225;-55
2021/07/21 00:44:19;;;;;;;13.33;8.87;;;15.60;99.90;;;;;;5074192;28;20343;-56
2021/07/21 00:46:46;;;;;;;11.23;7.80;;;15.60;99.90;;;;;;5073471;28;20258;-55
2021/07/21 00:49:12;;;;;;;10.57;8.20;;;15.60;99.90;;;;;;5073614;28;20254;-55
2021/07/21 00:51:39;;;;;;;11.17;8.10;;;15.60;99.90;;;;;;5073579;28;20229;-55
2021/07/21 00:54:06;;;;;;;9.97;8.37;;;15.50;99.90;;;;;;5073608;28;20205;-55
2021/07/21 00:56:35;;;;;;;12.27;8.47;;;15.40;99.90;;;;;;5073455;28;20742;-56
2021/07/21 00:59:04;;;;;;;10.27;7.63;;;15.40;99.90;;;;;;5073258;28;20587;-56
2021/07/21 01:01:30;;;;;;;10.57;8.47;;;15.40;99.90;;;;;;5073308;28;20232;-55
2021/07/21 01:03:57;;;;;;;12.13;7.73;;;15.40;99.90;;;;;;5073591;28;20664;-55
2021/07/21 01:06:24;;;;;;;11.47;8.37;;;15.40;99.90;;;;;;5073241;28;20201;-57
2021/07/21 01:08:51;;;;;;;12.67;8.00;;;15.30;99.90;;;;;;5073197;28;20212;-57
2021/07/21 01:11:26;;;;;;;10.33;7.67;;;15.30;99.90;;;;;;5073613;28;20286;-55
2021/07/21 01:13:59;;;;;;;11.13;8.53;;;15.30;99.90;;;;;;5073105;28;20730;-55
2021/07/21 01:16:32;;;;;;;10.13;8.20;;;15.20;99.90;;;;;;5073521;28;20205;-55
2021/07/21 01:19:06;;;;;;;11.13;8.00;;;15.20;99.90;;;;;;5073447;28;20296;-56
2021/07/21 01:22:03;;;;;;;12.30;8.00;;;15.10;99.90;;;;;;5073110;28;20239;-55
2021/07/21 01:24:36;;;;;;;16.20;8.83;;;15.00;99.90;;;;;;5073322;28;20695;-55
2021/07/21 01:27:27;;;;;;;9.07;7.93;;;15.00;99.90;;;;;;5073389;28;20205;-57
2021/07/21 01:29:56;;;;;;;12.47;7.80;;;14.90;99.90;;;;;;5070570;28;20246;-55
2021/07/21 01:32:29;;;;;;;10.13;8.47;;;14.90;99.90;;;;;;5072874;28;20237;-55
2021/07/21 01:35:08;;;;;;;9.60;7.27;;;14.90;99.90;;;;;;5073337;28;20205;-55
2021/07/21 01:37:39;;;;;;;10.60;7.83;;;14.90;99.90;;;;;;5073149;28;20216;-57
2021/07/21 01:40:11;;;;;;;11.40;7.83;;;14.90;99.90;;;;;;5072772;28;20196;-55
2021/07/21 01:42:40;;;;;;;8.80;7.83;;;14.90;99.90;;;;;;5072920;28;20630;-57
2021/07/21 01:45:08;;;;;;;10.30;7.87;;;14.80;99.90;;;;;;5072660;28;20296;-56
2021/07/21 01:47:36;;;;;;;11.00;8.00;;;14.70;99.90;;;;;;5072608;28;20262;-55
2021/07/21 01:50:07;;;;;;;11.13;7.83;;;14.70;99.90;;;;;;5072604;28;20221;-56
2021/07/21 01:52:34;;;;;;;13.07;8.17;;;14.70;99.90;;;;;;5072797;28;20212;-55
2021/07/21 01:55:03;;;;;;;12.00;7.83;;;14.70;99.90;;;;;;5072303;28;20205;-55
2021/07/21 01:57:32;;;;;;;11.40;7.47;;;14.60;99.90;;;;;;5072332;28;20208;-56
2021/07/21 02:00:02;;;;;;;10.10;8.20;;;14.60;99.90;;;;;;5072330;28;20201;-56
2021/07/21 02:02:30;;;;;;;11.90;8.07;;;14.60;99.90;;;;;;5072405;28;20570;-57
2021/07/21 02:04:58;;;;;;;8.47;7.50;;;14.60;99.90;;;;;;5072661;28;20205;-55
2021/07/21 02:07:25;;;;;;;16.03;8.00;;;14.60;99.90;;;;;;5072460;28;20208;-56
2021/07/21 02:09:53;;;;;;;10.23;7.60;;;14.60;99.90;;;;;;5072313;28;20614;-55
2021/07/21 02:12:19;;;;;;;9.57;7.37;;;14.60;99.90;;;;;;5072408;28;20278;-54
2021/07/21 02:14:48;;;;;;;8.70;7.20;;;14.60;99.90;;;;;;5072294;28;20205;-53
2021/07/21 02:17:16;;;;;;;9.27;7.60;;;14.60;99.90;;;;;;5071868;28;20295;-53
2021/07/21 02:19:45;;;;;;;10.27;7.83;;;14.60;99.90;;;;;;5072025;28;20312;-55
2021/07/21 02:22:15;;;;;;;10.10;8.13;;;14.60;99.90;;;;;;5071991;28;20278;-54
2021/07/21 02:24:44;;;;;;;9.83;7.60;;;14.60;99.90;;;;;;5071759;28;20212;-57
2021/07/21 02:27:11;;;;;;;11.33;7.80;;;14.60;99.90;;;;;;5072108;28;20212;-54
2021/07/21 02:29:38;;;;;;;12.20;7.07;;;14.50;99.90;;;;;;5071605;28;20758;-55
2021/07/21 02:32:09;;;;;;;15.13;7.90;;;14.50;99.90;;;;;;5071537;28;20237;-54
2021/07/21 02:34:37;;;;;;;10.83;7.43;;;14.50;99.90;;;;;;5071642;28;20209;-55
2021/07/21 02:37:05;;;;;;;11.40;8.53;;;14.50;99.90;;;;;;5071515;28;20220;-55
2021/07/21 02:39:31;;;;;;;10.87;7.67;;;14.50;99.90;;;;;;5071226;28;20205;-56
2021/07/21 02:41:58;;;;;;;11.27;7.90;;;14.50;99.90;;;;;;5071652;28;20229;-56
2021/07/21 02:44:25;;;;;;;10.57;8.00;;;14.50;99.90;;;;;;5071478;28;20204;-55
2021/07/21 02:46:52;;;;;;;10.47;7.53;;;14.40;99.90;;;;;;5071620;28;20629;-54
2021/07/21 02:49:21;;;;;;;10.57;8.07;;;14.40;99.90;;;;;;5071314;28;20209;-55
2021/07/21 02:51:51;;;;;;;10.23;7.77;;;14.40;99.90;;;;;;5071117;28;20228;-54
2021/07/21 02:54:31;;;;;;;10.60;8.17;;;14.40;99.90;;;;;;5071347;28;20216;-56
2021/07/21 02:57:07;;;;;;;11.37;8.53;;;14.40;99.90;;;;;;5071383;28;20212;-55
2021/07/21 02:59:41;;;;;;;12.13;7.90;;;14.40;99.90;;;;;;5071729;28;20296;-54
2021/07/21 03:02:09;;;;;;;10.07;7.93;;;14.40;99.90;;;;;;5071118;28;20225;-54
2021/07/21 03:04:38;;;;;;;10.53;7.30;;;14.40;99.90;;;;;;5071121;28;20213;-56
2021/07/21 03:07:07;;;;;;;14.27;8.13;;;14.40;99.90;;;;;;5071183;28;20215;-54
2021/07/21 03:09:36;;;;;;;12.50;7.70;;;14.30;99.90;;;;;;5070782;28;20619;-56
2021/07/21 03:12:06;;;;;;;12.20;7.70;;;14.30;99.90;;;;;;5071019;28;20229;-54
2021/07/21 03:14:36;;;;;;;12.67;8.13;;;14.30;99.90;;;;;;5070702;28;20209;-54
2021/07/21 03:17:05;;;;;;;11.43;7.73;;;14.20;99.90;;;;;;5070815;28;20212;-54
2021/07/21 03:19:33;;;;;;;11.77;8.27;;;14.20;99.90;;;;;;5070945;28;20211;-56
2021/07/21 03:22:02;;;;;;;12.70;7.37;;;14.10;99.90;;;;;;5070918;28;20228;-54
2021/07/21 03:24:31;;;;;;;9.57;7.87;;;14.20;99.90;;;;;;5070830;28;20204;-55
2021/07/21 03:26:58;;;;;;;11.90;7.83;;;14.20;99.90;;;;;;5071294;28;20208;-54
2021/07/21 03:29:28;;;;;;;10.70;7.50;;;14.20;99.90;;;;;;5070165;28;20213;-55
2021/07/21 03:31:55;;;;;;;13.30;7.70;;;14.20;99.90;;;;;;5071309;28;20245;-57
2021/07/21 03:34:23;;;;;;;9.20;7.80;;;14.10;99.90;;;;;;5070296;28;20205;-57
2021/07/21 03:36:53;;;;;;;10.90;7.63;;;14.10;99.90;;;;;;5070834;28;20220;-58
2021/07/21 03:39:20;;;;;;;9.90;7.30;;;14.20;99.90;;;;;;5070586;28;20215;-57
2021/07/21 03:41:50;;;;;;;14.67;7.70;;;14.20;99.90;;;;;;5070510;28;20225;-57
2021/07/21 03:44:21;;;;;;;10.90;7.40;;;14.20;99.90;;;;;;5070576;28;20255;-56
2021/07/21 03:46:48;;;;;;;10.97;7.47;;;14.20;99.90;;;;;;5071076;28;20205;-58
2021/07/21 03:49:18;;;;;;;11.30;7.20;;;14.30;99.90;;;;;;5070566;28;20637;-58
2021/07/21 03:51:45;;;;;;;11.37;7.90;;;14.30;99.90;;;;;;5070499;28;20302;-57
2021/07/21 03:54:14;;;;;;;11.00;8.20;;;14.30;99.90;;;;;;5070108;28;20648;-56
2021/07/21 03:56:43;;;;;;;11.37;7.80;;;14.20;99.90;;;;;;5070714;28;20209;-57
2021/07/21 03:59:15;;;;;;;12.73;8.10;;;14.20;99.90;;;;;;5070455;28;20231;-58
2021/07/21 04:01:43;;;;;;;8.67;7.53;;;14.20;99.90;;;;;;5070461;28;20224;-57
2021/07/21 04:04:11;;;;;;;11.43;7.93;;;14.30;99.90;;;;;;5070287;28;20672;-57
2021/07/21 04:06:39;;;;;;;9.73;8.57;;;14.20;99.90;;;;;;5070171;28;20208;-56
2021/07/21 04:09:07;;;;;;;9.83;7.43;;;14.20;99.90;;;;;;5070219;28;20549;-57
2021/07/21 04:11:35;;;;;;;13.13;8.17;;;14.30;99.90;;;;;;5070457;28;20229;-57
2021/07/21 04:14:03;;;;;;;8.93;7.47;;;14.30;99.90;;;;;;5070422;28;20216;-57
2021/07/21 04:16:33;;;;;;;10.97;7.63;;;14.30;99.90;;;;;;5070193;28;20200;-57
2021/07/21 04:19:00;;;;;;;9.90;7.23;;;14.30;99.90;;;;;;5070377;28;20680;-57
2021/07/21 04:21:28;;;;;;;10.13;7.57;;;14.30;99.90;;;;;;5072904;28;20645;-57
2021/07/21 04:23:55;;;;;;;10.40;7.20;;;14.50;99.90;;;;;;5074068;28;20208;-57
2021/07/21 04:26:24;;;;;;;7.80;6.93;;;14.50;99.90;;;;;;5071741;28;20213;-56
2021/07/21 04:28:52;;;;;;;9.10;7.33;;;14.60;99.90;;;;;;5070238;28;20205;-57
2021/07/21 04:31:26;;;;;;;8.80;7.03;;;14.70;99.90;;;;;;5070113;28;20240;-58
2021/07/21 04:33:54;;;;;;;11.17;7.87;;;14.70;99.90;;;;;;5070197;28;20216;-58
2021/07/21 04:36:22;;;;;;;11.47;7.93;;;14.80;99.90;;;;;;5071085;28;20295;-63
2021/07/21 04:38:49;;;;;;;9.23;7.57;;;14.90;99.90;;;;;;5070493;28;20574;-57
2021/07/21 04:41:16;;;;;;;12.93;7.40;;;15.00;99.90;;;;;;5073271;28;20231;-58
2021/07/21 04:43:43;;;;;;;9.73;7.23;;;15.10;99.90;;;;;;5073704;28;20234;-58
2021/07/21 04:46:12;;;;;;;13.10;8.10;;;15.20;99.90;;;;;;5073817;28;20209;-57
2021/07/21 04:48:40;;;;;;;8.93;7.20;;;15.20;99.90;;;;;;5073807;28;20271;-58
2021/07/21 04:51:09;;;;;;;10.10;7.10;;;15.40;99.90;;;;;;5073514;28;20713;-57
2021/07/21 04:53:36;;;;;;;10.43;7.67;;;15.40;99.90;;;;;;5073696;28;20209;-58
2021/07/21 04:56:04;;;;;;;9.43;7.30;;;15.50;99.90;;;;;;5073663;28;20232;-58
2021/07/21 04:58:30;;;;;;;12.63;8.00;;;15.50;99.90;;;;;;5073428;28;20234;-57
2021/07/21 05:00:58;;;;;;;10.63;7.43;;;15.60;99.90;;;;;;5073297;28;20221;-57
2021/07/21 05:03:25;;;;;;;10.47;7.77;;;15.70;99.90;;;;;;5073576;28;20209;-57
2021/07/21 05:05:52;;;;;;;12.53;7.43;;;15.80;99.90;;;;;;5073761;28;20209;-57
2021/07/21 05:08:20;;;;;;;9.93;7.63;;;15.90;99.90;;;;;;5073558;28;20262;-57
2021/07/21 05:10:46;;;;;;;15.37;9.63;;;16.00;99.90;;;;;;5073178;28;20290;-57
2021/07/21 05:13:13;;;;;;;13.43;8.60;;;16.20;99.90;;;;;;5073670;28;20205;-57
2021/07/21 05:15:44;;;;;;;9.23;6.97;;;16.30;99.90;;;;;;5073015;28;20231;-57
2021/07/21 05:18:12;;;;;;;10.90;7.60;;;16.40;99.90;;;;;;5073155;28;20266;-57
2021/07/21 05:20:38;;;;;;;10.03;7.17;;;16.60;99.90;;;;;;5073230;28;20739;-57
2021/07/21 05:23:05;;;;;;;10.63;7.90;;;16.70;99.90;;;;;;5073461;28;20283;-58
2021/07/21 05:25:36;;;;;;;14.23;8.70;;;16.90;99.90;;;;;;5073159;28;20211;-57
2021/07/21 05:28:04;;;;;;;12.50;8.17;;;17.00;99.90;;;;;;5072971;28;20623;-57
2021/07/21 05:30:31;;;;;;;11.47;7.77;;;17.20;99.90;;;;;;5072912;28;20286;-57
2021/07/21 05:32:58;;;;;;;9.70;7.73;;;17.50;99.90;;;;;;5073118;28;20209;-58
2021/07/21 05:35:25;;;;;;;13.10;7.68;;;17.70;99.90;;;;;;5072592;28;20730;-57
2021/07/21 05:37:52;;;;;;;9.48;7.03;;;18.00;99.90;;;;;;5072719;28;20621;-58
2021/07/21 05:40:18;;;;;;;10.02;7.25;;;18.80;99.90;;;;;;5072747;28;20256;-58
2021/07/21 05:42:46;;;;;;;11.20;7.22;;;20.40;99.90;;;;;;5072671;28;20254;-57
2021/07/21 05:45:13;;;;;;;9.10;7.25;;;22.00;99.90;;;;;;5072725;28;20205;-57
2021/07/21 05:47:40;;;;;;;9.23;6.80;;;23.00;99.90;;;;;;5072829;28;20696;-57
2021/07/21 05:50:08;;;;;;;9.90;6.57;;;24.10;99.90;;;;;;5072629;28;20216;-57
2021/07/21 05:52:35;;;;;;;9.05;6.72;;;24.50;99.90;;;;;;5072109;28;20208;-57
2021/07/21 05:55:02;;;;;;;9.40;6.65;;;25.30;99.90;;;;;;5072674;28;20304;-55
2021/07/21 05:57:29;;;;;;;8.88;6.22;;;26.60;99.90;;;;;;5072889;28;20716;-54
2021/07/21 05:59:57;;;;;;;6.90;6.07;;;26.60;99.90;;;;;;5072790;28;20211;-54
2021/07/21 06:02:24;;;;;;;10.07;6.18;;;26.40;99.90;;;;;;5072939;28;20611;-55
2021/07/21 06:04:51;;;;;;;8.27;6.65;;;26.60;99.90;;;;;;5072652;28;20304;-54
2021/07/21 06:07:18;;;;;;;10.43;7.13;;;27.70;97.60;;;;;;5072889;28;20631;-56
2021/07/21 06:09:44;;;;;;;8.40;6.55;;;28.50;96.00;;;;;;5072251;28;20213;-54
2021/07/21 06:12:11;;;;;;;8.88;6.88;;;29.20;92.20;;;;;;5072408;28;20228;-55
2021/07/21 06:14:38;;;;;;;8.82;6.57;;;29.40;91.70;;;;;;5072265;28;20219;-56
2021/07/21 06:17:06;;;;;;;11.70;7.03;;;30.20;90.50;;;;;;5072371;28;20295;-55
2021/07/21 06:19:34;;;;;;;8.70;6.97;;;31.00;86.30;;;;;;5072415;28;20209;-55
2021/07/21 06:22:00;;;;;;;9.77;6.18;;;31.90;82.20;;;;;;5072152;28;20225;-55
2021/07/21 06:24:27;;;;;;;16.33;14.45;;;33.20;77.90;;;;;;5071779;28;20262;-55
2021/07/21 06:26:54;;;;;;;11.07;6.72;;;34.50;72.00;;;;;;5072241;28;20209;-55
2021/07/21 06:29:21;;;;;;;8.95;6.00;;;35.60;67.00;;;;;;5071784;28;20208;-57
2021/07/21 06:31:48;;;;;;;12.57;6.13;;;36.40;60.90;;;;;;5071819;28;20233;-56
2021/07/21 06:34:16;;;;;;;9.80;6.32;;;36.90;59.40;;;;;;5071835;28;20205;-57
2021/07/21 06:36:42;;;;;;;10.07;6.50;;;37.50;55.60;;;;;;5071667;28;20665;-56
2021/07/21 06:39:09;;;;;;;7.28;6.43;;;37.40;55.60;;;;;;5071867;28;20216;-57
2021/07/21 06:41:36;;;;;;;8.85;6.38;;;36.50;55.10;;;;;;5072039;28;20232;-57
2021/07/21 06:44:03;;;;;;;6.68;6.00;;;36.20;55.90;;;;;;5071456;28;20231;-57
2021/07/21 06:46:31;;;;;;;8.32;6.50;;;36.70;54.20;;;;;;5071685;28;20205;-57
2021/07/21 06:48:57;;;;;;;8.98;6.65;;;36.90;53.70;;;;;;5071365;28;20292;-57
2021/07/21 06:51:25;;;;;;;9.73;6.82;;;37.00;52.20;;;;;;5071046;28;20746;-57
2021/07/21 06:53:52;;;;;;;8.40;6.20;;;36.70;53.20;;;;;;5071331;28;20213;-57
2021/07/21 06:56:19;;;;;;;10.77;6.65;;;36.00;53.40;;;;;;5071261;28;20673;-58
2021/07/21 06:58:46;;;;;;;8.48;6.05;;;36.30;53.40;;;;;;5071506;28;20204;-57
2021/07/21 07:01:14;;;;;;;9.98;6.47;;;36.80;52.60;;;;;;5071414;28;20220;-57
2021/07/21 07:03:40;;;;;;;7.15;6.40;;;36.80;53.10;;;;;;5070937;28;20326;-56
2021/07/21 07:06:07;;;;;;;9.52;6.40;;;37.30;52.20;;;;;;5071137;28;20209;-58
2021/07/21 07:08:36;;;;;;;8.32;6.53;;;38.00;51.20;;;;;;5071180;28;20459;-57
2021/07/21 07:11:02;;;;;;;7.03;5.85;;;38.90;49.70;;;;;;5070868;28;20225;-58
2021/07/21 07:13:29;;;;;;;8.57;6.35;;;39.50;47.50;;;;;;5070876;28;20216;-60
2021/07/21 07:15:55;;;;;;;10.88;6.88;;;39.00;47.60;;;;;;5071435;28;20209;-63
2021/07/21 07:18:22;;;;;;;7.20;6.30;;;36.70;50.60;;;;;;5071237;28;20209;-63
2021/07/21 07:20:51;;;;;;;10.27;6.28;;;36.50;51.60;;;;;;5070947;28;20646;-58
2021/07/21 07:23:17;;;;;;;8.30;5.95;;;36.60;52.20;;;;;;5071111;28;20554;-60
2021/07/21 07:25:45;;;;;;;9.38;6.07;;;37.30;50.80;;;;;;5070900;28;20673;-57
2021/07/21 07:28:13;;;;;;;11.38;6.95;;;38.10;50.40;;;;;;5070802;28;20201;-62
2021/07/21 07:30:40;;;;;;;9.50;6.13;;;39.30;48.60;;;;;;5070741;28;20247;-62
2021/07/21 07:33:06;;;;;;;13.43;6.10;;;40.10;46.30;;;;;;5070981;28;20263;-62
2021/07/21 07:35:34;;;;;;;9.60;6.30;;;37.80;49.40;;;;;;5070923;28;20212;-62
2021/07/21 07:38:01;;;;;;;12.20;6.43;;;37.30;49.30;;;;;;5070593;28;20269;-62
2021/07/21 07:40:27;;;;;;;9.52;6.53;;;36.00;51.40;;;;;;5070440;28;20267;-61
2021/07/21 07:42:55;;;;;;;10.10;6.10;;;35.10;53.20;;;;;;5070800;28;20208;-61
2021/07/21 07:45:22;;;;;;;9.57;6.90;;;35.50;53.00;;;;;;5070450;28;20557;-61
2021/07/21 07:47:49;;;;;;;10.85;6.38;;;36.60;51.70;;;;;;5070553;28;20212;-64
2021/07/21 07:50:15;;;;;;;8.00;6.25;;;37.70;49.60;;;;;;5070617;28;20274;-62
2021/07/21 07:52:42;;;;;;;7.05;5.63;;;38.70;47.80;;;;;;5070709;28;20278;-62
2021/07/21 07:55:10;;;;;;;6.22;5.60;;;39.40;46.10;;;;;;5070527;28;20205;-62
2021/07/21 07:57:37;;;;;;;10.43;6.05;;;39.90;45.40;;;;;;5070569;28;20211;-62
2021/07/21 08:00:08;;;;;;;7.93;6.03;;;38.70;47.30;;;;;;5070280;28;20259;-62
2021/07/21 08:02:35;;;;;;;7.75;6.07;;;37.50;48.40;;;;;;5070886;28;20208;-62
2021/07/21 08:05:02;;;;;;;6.18;5.40;;;35.80;50.20;;;;;;5070269;28;20212;-61
2021/07/21 08:07:32;;;;;;;8.77;6.05;;;34.50;52.70;;;;;;5070418;28;20213;-62
2021/07/21 08:09:59;;;;;;;7.90;6.43;;;35.50;51.10;;;;;;5070363;28;20587;-61
2021/07/21 08:12:26;;;;;;;9.50;5.72;;;36.70;49.80;;;;;;5070327;28;20350;-61
2021/07/21 08:14:53;;;;;;;10.25;6.20;;;37.20;48.10;;;;;;5071103;28;20213;-62
2021/07/21 08:17:21;;;;;;;7.35;5.80;;;36.70;49.20;;;;;;5074476;28;20656;-61
2021/07/21 08:19:47;;;;;;;8.50;6.10;;;37.00;48.70;;;;;;5073908;28;20576;-61
2021/07/21 08:22:15;;;;;;;7.38;5.05;;;37.80;47.60;;;;;;5074017;28;20599;-62
2021/07/21 08:24:42;;;;;;;6.35;5.28;;;37.90;46.80;;;;;;5074151;28;20299;-62
2021/07/21 08:27:08;;;;;;;7.15;5.50;;;38.50;45.80;;;;;;5073880;28;20209;-61
2021/07/21 08:29:36;;;;;;;8.45;5.68;;;38.10;46.40;;;;;;5074190;28;20205;-62
2021/07/21 08:32:03;;;;;;;5.80;5.20;;;37.90;46.10;;;;;;5074093;28;20232;-62
2021/07/21 08:34:31;;;;;;;7.32;5.65;;;37.80;46.30;;;;;;5074269;28;20238;-62
2021/07/21 08:36:58;;;;;;;8.63;5.90;;;37.20;47.30;;;;;;5074487;28;20212;-62
2021/07/21 08:39:24;;;;;;;6.93;5.07;;;36.40;48.30;;;;;;5074098;28;20228;-62
2021/07/21 08:41:51;;;;;;;7.97;5.93;;;36.50;48.40;;;;;;5073842;28;20229;-62
2021/07/21 08:44:18;;;;;;;7.45;5.88;;;36.30;48.10;;;;;;5073807;28;20350;-62
2021/07/21 08:46:45;;;;;;;6.88;5.78;;;35.10;49.70;;;;;;5073884;28;20208;-62
2021/07/21 08:49:12;;;;;;;7.57;5.88;;;34.10;50.70;;;;;;5073653;28;20232;-62
2021/07/21 08:51:41;;;;;;;6.97;5.50;;;33.40;51.20;;;;;;5073611;28;20279;-61
2021/07/21 08:54:09;;;;;;;9.30;6.00;;;32.10;52.50;;;;;;5073413;28;20582;-62
2021/07/21 08:56:36;;;;;;;7.03;5.82;;;30.90;54.10;;;;;;5073330;28;20213;-62
2021/07/21 08:59:03;;;;;;;7.15;6.15;;;29.90;56.50;;;;;;5073321;28;20740;-62
2021/07/21 09:01:30;;;;;;;6.40;5.15;;;29.00;58.20;;;;;;5073418;28;20225;-62
2021/07/21 09:03:57;;;;;;;7.50;5.45;;;28.30;59.20;;;;;;5073308;28;20209;-62
2021/07/21 09:06:24;;;;;;;8.55;5.95;;;27.80;60.90;;;;;;5073447;28;20258;-62
2021/07/21 09:08:52;;;;;;;7.13;5.53;;;27.40;60.50;;;;;;5073316;28;20208;-62
2021/07/21 09:11:19;;;;;;;7.55;5.78;;;26.90;61.80;;;;;;5072975;28;20233;-62
2021/07/21 09:13:46;;;;;;;10.60;6.15;;;26.40;63.70;;;;;;5073540;28;20254;-61
2021/07/21 09:16:13;;;;;;;8.23;5.25;;;26.20;64.60;;;;;;5073405;28;20251;-59
2021/07/21 09:18:47;;;;;;;7.00;5.95;;;26.00;65.80;;;;;;5072957;28;20205;-59
2021/07/21 09:21:16;;;;;;;7.15;6.20;;;25.90;65.40;;;;;;5072930;28;20228;-59
2021/07/21 09:23:46;;;;;;;7.68;5.60;;;25.70;66.60;;;;;;5072847;28;20208;-59
2021/07/21 09:26:20;;;;;;;7.43;5.63;;;25.70;67.30;;;;;;5073153;28;20208;-59
2021/07/21 09:28:47;;;;;;;7.78;6.38;;;25.60;67.70;;;;;;5073163;28;20205;-62
2021/07/21 09:31:16;;;;;;;7.25;6.13;;;25.60;66.60;;;;;;5073407;28;20233;-59
2021/07/21 09:33:44;;;;;;;9.63;6.07;;;25.60;67.50;;;;;;5072715;28;20233;-60
2021/07/21 09:36:19;;;;;;;8.70;6.38;;;25.70;67.00;;;;;;5073262;28;20216;-60
2021/07/21 09:38:46;;;;;;;7.50;6.05;;;25.90;66.90;;;;;;5072876;28;20295;-60
2021/07/21 09:41:15;;;;;;;10.73;6.07;;;25.80;68.50;;;;;;5072775;28;20229;-60
2021/07/21 09:43:42;;;;;;;8.75;5.95;;;25.70;69.30;;;;;;5072641;28;20211;-60
2021/07/21 09:46:11;;;;;;;8.15;6.45;;;25.70;69.30;;;;;;5072527;28;20205;-59
2021/07/21 09:48:39;;;;;;;9.60;6.30;;;25.60;69.90;;;;;;5072083;28;20630;-60
2021/07/21 09:51:06;;;;;;;7.43;6.10;;;25.60;69.80;;;;;;5072644;28;20225;-60
2021/07/21 09:53:41;;;;;;;7.43;6.25;;;25.70;70.40;;;;;;5072090;28;20225;-60
2021/07/21 09:56:09;;;;;;;8.15;5.85;;;25.70;70.00;;;;;;5072529;28;20231;-59
2021/07/21 09:58:37;;;;;;;8.18;6.28;;;25.80;70.00;;;;;;5072232;28;20265;-59
2021/07/21 10:01:05;;;;;;;9.45;6.20;;;26.00;69.40;;;;;;5072035;28;20228;-59
2021/07/21 10:03:35;;;;;;;7.70;5.95;;;26.00;69.40;;;;;;5072119;28;20197;-59
2021/07/21 10:06:08;;;;;;;8.02;6.07;;;26.20;68.70;;;;;;5072411;28;20323;-60
2021/07/21 10:08:39;;;;;;;8.05;6.30;;;26.30;68.70;;;;;;5072409;28;20216;-60
2021/07/21 10:11:26;;;;;;;12.45;6.38;;;26.30;69.10;;;;;;5072124;28;20221;-60
2021/07/21 10:13:56;;;;;;;8.60;6.45;;;26.20;69.50;;;;;;5072224;28;20224;-60
2021/07/21 10:16:40;;;;;;;8.68;6.35;;;26.20;69.50;;;;;;5072215;28;20700;-59
2021/07/21 10:19:09;;;;;;;9.85;5.97;;;26.20;69.00;;;;;;5072083;28;20205;-60
2021/07/21 10:21:37;;;;;;;10.15;7.10;;;26.20;68.90;;;;;;5072062;28;20270;-59
2021/07/21 10:24:05;;;;;;;10.15;7.45;;;26.40;68.70;;;;;;5071977;28;20425;-60
2021/07/21 10:26:32;;;;;;;37.72;18.02;;;26.60;68.80;;;;;;5072258;28;20201;-59
2021/07/21 10:29:01;;;;;;;8.63;6.40;;;26.70;68.70;;;;;;5072049;28;20623;-59
2021/07/21 10:31:29;;;;;;;8.73;5.80;;;26.80;69.10;;;;;;5072284;28;20233;-60
2021/07/21 10:33:57;;;;;;;9.43;6.75;;;26.80;69.90;;;;;;5071735;28;20224;-60
2021/07/21 10:36:24;;;;;;;12.15;6.68;;;26.70;68.90;;;;;;5071754;28;20262;-59
2021/07/21 10:38:51;;;;;;;9.60;6.10;;;26.70;69.90;;;;;;5071630;28;20212;-59
2021/07/21 10:41:19;;;;;;;9.02;6.40;;;26.80;70.00;;;;;;5071751;28;20229;-59
2021/07/21 10:43:48;;;;;;;9.00;6.85;;;26.70;68.80;;;;;;5071600;28;20201;-59
2021/07/21 10:46:37;;;;;;;9.77;6.75;;;26.60;69.80;;;;;;5072263;28;20263;-59
2021/07/21 10:49:31;;;;;;;14.05;6.78;;;26.60;69.90;;;;;;5071741;28;20205;-59
2021/07/21 10:52:39;;;;;;;9.98;6.82;;;26.80;69.00;;;;;;5070231;28;20228;-59
2021/07/21 10:55:23;;;;;;;9.45;7.05;;;26.80;69.50;;;;;;5050829;28;20210;-60
2021/07/21 11:00:39;;;;;;;11.95;7.22;;;27.10;68.20;;;;;;5071192;28;20220;-59
2021/07/21 11:03:22;;;;;;;8.45;7.20;;;27.10;67.30;;;;;;5071129;28;20235;-59
2021/07/21 11:05:58;;;;;;;9.77;6.72;;;27.20;67.20;;;;;;5071020;28;20211;-59
2021/07/21 11:08:27;;;;;;;9.55;7.38;;;27.40;66.80;;;;;;5070823;28;20215;-60
2021/07/21 11:10:55;;;;;;;10.45;7.10;;;27.40;66.80;;;;;;5071313;28;20259;-60
2021/07/21 11:13:43;;;;;;;10.05;7.32;;;27.50;67.10;;;;;;5070914;28;20232;-60
2021/07/21 11:16:41;;;;;;;9.98;7.55;;;27.50;66.90;;;;;;5067576;28;20209;-61
2021/07/21 11:19:29;;;;;;;12.13;7.75;;;27.30;67.50;;;;;;5070897;28;20201;-61
2021/07/21 11:21:57;;;;;;;8.32;6.50;;;27.40;66.80;;;;;;5070985;28;20229;-60
2021/07/21 11:24:25;;;;;;;10.52;7.22;;;27.30;68.00;;;;;;5070917;28;20694;-60
2021/07/21 11:26:52;;;;;;;11.32;7.18;;;27.40;68.30;;;;;;5070790;28;20541;-60
2021/07/21 11:29:42;;;;;;;8.88;7.63;;;27.50;68.30;;;;;;5070937;28;20209;-60
2021/07/21 11:32:36;;;;;;;10.13;7.35;;;27.40;67.60;;;;;;5070635;28;20229;-59
2021/07/21 11:35:38;;;;;;;9.93;7.40;;;27.30;68.40;;;;;;5071008;28;20262;-60
2021/07/21 11:38:17;;;;;;;8.60;7.68;;;27.40;67.50;;;;;;5070613;28;20296;-60
2021/07/21 11:40:45;;;;;;;8.35;7.32;;;27.60;67.00;;;;;;5070806;28;20320;-59
2021/07/21 11:43:31;;;;;;;14.48;7.82;;;28.00;66.30;;;;;;5071135;28;20213;-59
2021/07/21 11:46:07;;;;;;;10.20;6.57;;;28.20;66.10;;;;;;5070837;28;20292;-60
2021/07/21 11:48:34;;;;;;;9.93;6.90;;;28.20;65.90;;;;;;5070343;28;20220;-59
2021/07/21 11:51:09;;;;;;;8.63;7.05;;;28.20;66.70;;;;;;5069872;28;20228;-60
2021/07/21 11:53:37;;;;;;;9.00;7.57;;;28.20;66.50;;;;;;5070241;28;20217;-60
2021/07/21 11:56:08;;;;;;;10.85;7.38;;;28.20;66.50;;;;;;5070825;28;20208;-59
2021/07/21 11:58:36;;;;;;;12.43;7.82;;;28.20;66.20;;;;;;5070495;28;20628;-60
2021/07/21 12:01:05;;;;;;;9.48;6.80;;;28.40;66.00;;;;;;5070839;28;20290;-58
2021/07/21 12:03:44;;;;;;;9.02;7.18;;;28.60;65.50;;;;;;5070287;28;20684;-59
2021/07/21 12:06:24;;;;;;;8.55;7.45;;;28.50;65.30;;;;;;5070672;28;20204;-59
2021/07/21 12:08:52;;;;;;;10.98;7.97;;;28.40;65.20;;;;;;5070406;28;20644;-59
2021/07/21 12:11:19;;;;;;;9.10;7.15;;;28.30;66.20;;;;;;5070433;28;20605;-58
2021/07/21 12:13:46;;;;;;;10.20;7.72;;;28.30;65.80;;;;;;5070387;28;20231;-59
2021/07/21 12:16:13;;;;;;;7.88;7.07;;;28.30;65.60;;;;;;5070195;28;20208;-61
2021/07/21 12:18:40;;;;;;;10.35;7.38;;;28.20;66.00;;;;;;5070054;28;20360;-59
2021/07/21 12:21:09;;;;;;;9.85;6.82;;;28.10;65.10;;;;;;5070267;28;20228;-60
2021/07/21 12:23:37;;;;;;;10.68;8.07;;;28.10;65.20;;;;;;5070508;28;20209;-59
2021/07/21 12:26:09;;;;;;;9.57;7.03;;;28.20;64.80;;;;;;5070411;28;20205;-59
2021/07/21 12:28:36;;;;;;;11.32;7.93;;;28.30;64.80;;;;;;5070584;28;20208;-59
2021/07/21 12:31:03;;;;;;;9.18;7.57;;;28.30;65.20;;;;;;5070192;28;20237;-60
2021/07/21 12:33:30;;;;;;;9.48;7.63;;;28.20;64.80;;;;;;5070567;28;20480;-60
2021/07/21 12:36:06;;;;;;;9.75;8.38;;;28.20;64.60;;;;;;5070278;28;20607;-59
2021/07/21 12:38:40;;;;;;;9.40;7.28;;;28.40;64.60;;;;;;5070391;28;20204;-60
2021/07/21 12:41:10;;;;;;;8.65;7.53;;;28.60;64.50;;;;;;5070487;28;20262;-61
2021/07/21 12:43:37;;;;;;;9.77;7.53;;;28.90;63.20;;;;;;5070221;28;20254;-60
2021/07/21 12:46:14;;;;;;;9.02;7.18;;;29.10;62.30;;;;;;5070658;28;20212;-60
2021/07/21 12:48:41;;;;;;;11.23;6.55;;;29.00;62.80;;;;;;5070481;28;20200;-60
2021/07/21 12:51:08;;;;;;;8.20;6.80;;;28.90;63.40;;;;;;5070143;28;20229;-60
2021/07/21 12:53:34;;;;;;;9.65;7.22;;;28.60;62.50;;;;;;5069873;28;20221;-61
2021/07/21 12:56:03;;;;;;;7.03;6.03;;;28.50;64.00;;;;;;5069844;28;20676;-60
2021/07/21 12:58:29;;;;;;;9.45;6.22;;;28.40;63.80;;;;;;5069842;28;20209;-60
2021/07/21 13:00:56;;;;;;;7.53;6.18;;;28.50;64.40;;;;;;5070860;28;20225;-61
2021/07/21 13:03:24;;;;;;;8.15;6.55;;;28.60;63.60;;;;;;5073525;28;20205;-59